createdAt,value
2022-09-07T00:00:17.952Z,100496.20
2022-09-07T00:03:38.340Z,100499.60
2022-09-07T00:06:11.875Z,100504.60
2022-09-07T00:08:43.439Z,100505.00
2022-09-07T00:11:17.365Z,100505.20
2022-09-07T00:13:49.314Z,100502.80
2022-09-07T00:16:21.829Z,100497.40
2022-09-07T00:18:54.389Z,100505.40
2022-09-07T00:21:23.978Z,100504.60
2022-09-07T00:23:53.608Z,100499.20
2022-09-07T00:26:25.648Z,100498.20
2022-09-07T00:28:59.810Z,100498.20
2022-09-07T00:31:31.072Z,100492.80
2022-09-07T00:34:02.936Z,100490.60
2022-09-07T00:36:33.262Z,100488.40
2022-09-07T00:39:02.686Z,100487.60
2022-09-07T00:41:32.193Z,100485.80
2022-09-07T00:45:00.606Z,100480.60
2022-09-07T00:47:37.660Z,100481.00
2022-09-07T00:50:15.971Z,100478.40
2022-09-07T00:52:48.238Z,100478.00
2022-09-07T00:55:19.204Z,100480.80
2022-09-07T00:57:54.528Z,100479.40
2022-09-07T01:00:24.292Z,100480.60
2022-09-07T01:02:59.192Z,100481.60
2022-09-07T01:05:35.379Z,100478.20
2022-09-07T01:08:05.697Z,100481.20
2022-09-07T01:10:37.030Z,100479.80
2022-09-07T01:13:07.886Z,100482.60
2022-09-07T01:15:50.995Z,100475.60
2022-09-07T01:18:37.896Z,100475.80
2022-09-07T01:21:45.215Z,100469.00
2022-09-07T01:24:38.236Z,100465.40
2022-09-07T01:28:03.591Z,100471.20
2022-09-07T01:30:38.183Z,100470.40
2022-09-07T01:33:32.736Z,100469.40
2022-09-07T01:36:20.042Z,100465.60
2022-09-07T01:38:54.117Z,100465.00
2022-09-07T01:41:32.817Z,100464.80
2022-09-07T01:44:11.451Z,100462.00
2022-09-07T01:46:49.688Z,100465.20
2022-09-07T01:49:24.917Z,100467.80
2022-09-07T01:52:02.071Z,100458.80
2022-09-07T01:54:36.703Z,100457.40
2022-09-07T01:57:15.826Z,100454.80
2022-09-07T01:59:53.358Z,100458.20
2022-09-07T02:02:33.230Z,100453.00
2022-09-07T02:05:09.961Z,100446.80
2022-09-07T02:07:47.957Z,100451.40
2022-09-07T02:10:24.979Z,100450.00
2022-09-07T02:13:03.208Z,100444.80
2022-09-07T02:15:44.388Z,100442.80
2022-09-07T02:18:14.560Z,100443.60
2022-09-07T02:20:50.139Z,100445.80
2022-09-07T02:23:24.759Z,100446.00
2022-09-07T02:26:01.144Z,100446.20
2022-09-07T02:28:35.971Z,100444.20
2022-09-07T02:31:07.631Z,100447.60
2022-09-07T02:33:37.142Z,100447.60
2022-09-07T02:36:09.171Z,100452.20
2022-09-07T02:38:38.946Z,100443.20
2022-09-07T02:41:31.757Z,100445.80
2022-09-07T02:44:04.219Z,100446.20
2022-09-07T02:47:01.157Z,100443.80
2022-09-07T02:50:02.946Z,100439.20
2022-09-07T02:52:44.258Z,100435.80
2022-09-07T02:55:27.014Z,100435.60
2022-09-07T02:58:19.125Z,100442.40
2022-09-07T03:00:58.866Z,100439.40
2022-09-07T03:03:42.629Z,100438.40
2022-09-07T03:06:22.947Z,100433.20
2022-09-07T03:08:58.528Z,100428.80
2022-09-07T03:11:29.218Z,100425.60
2022-09-07T03:14:14.972Z,100429.40
2022-09-07T03:16:44.650Z,100428.00
2022-09-07T03:19:13.782Z,100428.60
2022-09-07T03:21:43.550Z,100425.60
2022-09-07T03:24:12.828Z,100423.80
2022-09-07T03:26:45.847Z,100429.20
2022-09-07T03:29:15.490Z,100429.00
2022-09-07T03:31:44.826Z,100431.60
2022-09-07T03:34:14.558Z,100427.60
2022-09-07T03:36:44.128Z,100429.40
2022-09-07T03:39:13.865Z,100423.80
2022-09-07T03:41:42.912Z,100424.00
2022-09-07T03:44:12.395Z,100423.40
2022-09-07T03:46:41.580Z,100429.60
2022-09-07T03:49:11.056Z,100430.20
2022-09-07T03:51:40.231Z,100427.00
2022-09-07T03:54:09.281Z,100428.20
2022-09-07T03:56:38.328Z,100428.40
2022-09-07T03:59:07.450Z,100429.60
2022-09-07T04:01:36.642Z,100418.40
2022-09-07T04:04:05.899Z,100410.40
2022-09-07T04:06:35.218Z,100410.80
2022-09-07T04:09:06.714Z,100415.00
2022-09-07T04:11:35.895Z,100414.00
2022-09-07T04:14:05.390Z,100408.40
2022-09-07T04:16:35.771Z,100403.60
2022-09-07T04:19:05.822Z,100402.60
2022-09-07T04:21:35.327Z,100402.20
2022-09-07T04:24:06.186Z,100396.60
2022-09-07T04:26:36.567Z,100397.00
2022-09-07T04:29:06.695Z,100399.20
2022-09-07T04:31:36.748Z,100405.80
2022-09-07T04:34:07.389Z,100406.60
2022-09-07T04:36:36.497Z,100397.20
2022-09-07T04:39:06.887Z,100399.40
2022-09-07T04:41:36.405Z,100400.80
2022-09-07T04:44:06.715Z,100396.00
2022-09-07T04:46:38.008Z,100395.60
2022-09-07T04:49:10.490Z,100397.60
2022-09-07T04:51:42.443Z,100397.60
2022-09-07T04:54:12.468Z,100396.40
2022-09-07T04:56:42.020Z,100389.80
2022-09-07T04:59:11.618Z,100390.40
2022-09-07T05:01:41.406Z,100397.60
2022-09-07T05:04:10.967Z,100398.40
2022-09-07T05:06:40.502Z,100403.40
2022-09-07T05:09:10.999Z,100404.80
2022-09-07T05:11:40.600Z,100403.80
2022-09-07T05:14:11.891Z,100411.00
2022-09-07T05:16:40.995Z,100404.40
2022-09-07T05:19:13.904Z,100401.20
2022-09-07T05:21:43.145Z,100396.40
2022-09-07T05:24:12.361Z,100390.00
2022-09-07T05:26:41.828Z,100393.80
2022-09-07T05:32:01.747Z,100390.00
2022-09-07T05:34:31.639Z,100393.00
2022-09-07T05:37:02.641Z,100400.00
2022-09-07T05:39:33.245Z,100407.60
2022-09-07T05:42:02.440Z,100397.00
2022-09-07T05:44:47.125Z,100395.80
2022-09-07T05:47:16.504Z,100391.00
2022-09-07T05:49:45.572Z,100396.20
2022-09-07T05:52:14.629Z,100401.20
2022-09-07T05:54:43.642Z,100403.20
2022-09-07T05:57:13.564Z,100407.00
2022-09-07T05:59:42.712Z,100414.00
2022-09-07T06:02:15.511Z,100416.00
2022-09-07T06:04:45.073Z,100411.60
2022-09-07T06:07:22.785Z,100408.80
2022-09-07T06:12:49.052Z,100396.40
2022-09-07T06:15:19.136Z,100396.60
2022-09-07T06:17:48.221Z,100405.00
2022-09-07T06:20:17.701Z,100400.60
2022-09-07T06:26:54.649Z,100411.20
2022-09-07T06:29:27.495Z,100421.60
2022-09-07T06:32:45.097Z,100427.20
2022-09-07T06:35:17.973Z,100418.60
2022-09-07T06:37:47.838Z,100420.40
2022-09-07T06:40:19.629Z,100415.60
2022-09-07T06:42:49.008Z,100411.20
2022-09-07T06:45:19.022Z,100412.00
2022-09-07T06:47:48.333Z,100415.80
2022-09-07T06:50:17.741Z,100417.60
2022-09-07T06:55:44.059Z,100411.80
2022-09-07T06:58:13.196Z,100412.00
2022-09-07T07:00:42.416Z,100412.40
2022-09-07T07:03:11.618Z,100408.20
2022-09-07T07:05:40.769Z,100405.40
2022-09-07T07:08:09.962Z,100411.40
2022-09-07T07:10:39.695Z,100408.20
2022-09-07T07:13:08.878Z,100407.40
2022-09-07T07:15:37.995Z,100405.60
2022-09-07T07:18:20.321Z,100402.80
2022-09-07T07:20:50.596Z,100402.40
2022-09-07T07:23:19.704Z,100401.40
2022-09-07T07:25:48.821Z,100400.20
2022-09-07T07:31:12.152Z,100397.60
2022-09-07T07:33:43.014Z,100394.80
2022-09-07T07:36:16.382Z,100391.00
2022-09-07T07:39:03.954Z,100390.20
2022-09-07T07:44:22.899Z,100385.40
2022-09-07T07:46:52.302Z,100382.60
2022-09-07T07:49:21.731Z,100384.80
2022-09-07T07:54:42.992Z,100395.20
2022-09-07T07:57:12.655Z,100398.40
2022-09-07T07:59:41.818Z,100397.20
2022-09-07T08:02:16.525Z,100397.60
2022-09-07T08:04:57.366Z,100401.80
2022-09-07T08:08:04.257Z,100402.60
2022-09-07T08:10:41.259Z,100400.80
2022-09-07T08:13:34.608Z,100396.80
2022-09-07T08:16:15.060Z,100395.60
2022-09-07T08:18:55.003Z,100390.00
2022-09-07T08:21:28.321Z,100386.00
2022-09-07T08:23:59.453Z,100385.00
2022-09-07T08:26:28.839Z,100388.80
2022-09-07T08:28:58.520Z,100391.00
2022-09-07T08:31:29.578Z,100393.20
2022-09-07T08:34:01.478Z,100394.20
2022-09-07T08:40:39.306Z,100398.40
2022-09-07T08:43:23.168Z,100395.40
2022-09-07T08:46:40.440Z,100397.80
2022-09-07T08:49:20.156Z,100393.40
2022-09-07T08:51:58.252Z,100390.80
2022-09-07T08:54:28.532Z,100381.60
2022-09-07T09:00:06.065Z,100364.80
2022-09-07T09:02:43.147Z,100357.20
2022-09-07T09:05:45.697Z,100351.00
2022-09-07T09:08:40.644Z,100360.60
2022-09-07T09:11:24.809Z,100356.20
2022-09-07T09:14:18.589Z,100358.40
2022-09-07T09:16:57.734Z,100353.20
2022-09-07T09:19:56.465Z,100353.40
2022-09-07T09:22:28.042Z,100355.60
2022-09-07T09:25:13.433Z,100355.60
2022-09-07T09:27:43.999Z,100348.00
2022-09-07T09:30:20.592Z,100343.40
2022-09-07T09:33:14.239Z,100354.80
2022-09-07T09:37:00.035Z,100354.00
2022-09-07T09:39:44.569Z,100350.60
2022-09-07T09:43:21.844Z,100345.00
2022-09-07T09:46:19.118Z,100350.80
2022-09-07T09:48:59.497Z,100342.80
2022-09-07T09:55:33.917Z,100326.20
2022-09-07T10:04:29.264Z,100303.40
2022-09-07T10:07:08.387Z,100305.00
2022-09-07T10:09:53.302Z,100311.20
2022-09-07T10:12:33.107Z,100316.00
2022-09-07T10:15:41.674Z,100313.40
2022-09-07T10:18:26.254Z,100315.20
2022-09-07T10:21:21.186Z,100315.00
2022-09-07T10:23:57.752Z,100309.00
2022-09-07T10:26:34.467Z,100308.20
2022-09-07T10:29:22.000Z,100307.00
2022-09-07T10:32:42.765Z,100310.60
2022-09-07T10:35:27.040Z,100311.40
2022-09-07T10:38:15.399Z,100312.40
2022-09-07T10:40:53.508Z,100310.20
2022-09-07T10:43:42.982Z,100304.60
2022-09-07T10:47:03.947Z,100302.80
2022-09-07T10:52:52.299Z,100305.20
2022-09-07T10:55:32.341Z,100302.20
2022-09-07T10:59:01.357Z,100302.60
2022-09-07T11:01:27.095Z,100304.80
2022-09-07T11:04:19.223Z,100306.00
2022-09-07T11:06:52.315Z,100305.00
2022-09-07T11:09:47.581Z,100300.20
2022-09-07T11:12:27.357Z,100303.40
2022-09-07T11:15:16.677Z,100294.80
2022-09-07T11:17:53.338Z,100289.60
2022-09-07T11:20:31.552Z,100290.40
2022-09-07T11:23:14.596Z,100282.20
2022-09-07T11:25:53.873Z,100281.60
2022-09-07T11:28:28.596Z,100286.40
2022-09-07T11:31:02.699Z,100290.20
2022-09-07T11:33:40.459Z,100289.00
2022-09-07T11:36:17.843Z,100289.80
2022-09-07T11:38:54.042Z,100288.60
2022-09-07T11:41:27.090Z,100282.60
2022-09-07T11:44:18.862Z,100277.40
2022-09-07T11:46:56.286Z,100267.20
2022-09-07T11:49:27.144Z,100262.00
2022-09-07T11:52:05.556Z,100264.60
2022-09-07T11:54:44.903Z,100263.20
2022-09-07T11:57:42.683Z,100253.60
2022-09-07T12:00:21.237Z,100189.80
2022-09-07T12:03:48.889Z,100117.40
2022-09-07T12:06:59.968Z,100142.40
2022-09-07T12:09:53.604Z,100166.20
2022-09-07T12:12:51.194Z,100183.80
2022-09-07T12:15:32.801Z,100210.20
2022-09-07T12:18:21.908Z,100209.80
2022-09-07T12:20:51.426Z,100247.60
2022-09-07T12:23:29.259Z,100247.00
2022-09-07T12:26:51.371Z,100239.20
2022-09-07T12:29:24.965Z,100209.20
2022-09-07T12:31:58.680Z,100223.20
2022-09-07T12:34:57.297Z,100226.20
2022-09-07T12:37:44.077Z,100221.00
2022-09-07T12:40:59.630Z,100209.60
2022-09-07T12:44:10.467Z,100199.80
2022-09-07T12:47:03.349Z,100204.20
2022-09-07T12:50:16.856Z,100199.00
2022-09-07T12:53:28.617Z,100200.00
2022-09-07T12:56:24.080Z,100188.60
2022-09-07T12:59:19.785Z,100186.20
2022-09-07T13:02:02.526Z,100185.40
2022-09-07T13:04:58.607Z,100190.80
2022-09-07T13:08:11.627Z,100194.00
2022-09-07T13:10:43.064Z,100189.40
2022-09-07T13:20:15.281Z,100179.00
2022-09-07T13:23:22.364Z,100181.60
2022-09-07T13:25:59.544Z,100182.20
2022-09-07T13:28:55.721Z,100176.40
2022-09-07T13:32:00.114Z,100171.00
2022-09-07T13:34:52.887Z,100178.80
2022-09-07T13:37:30.182Z,100181.40
2022-09-07T13:40:03.362Z,100170.20
2022-09-07T13:42:36.064Z,100179.60
2022-09-07T13:45:25.836Z,100175.00
2022-09-07T13:48:07.487Z,100173.40
2022-09-07T13:50:56.922Z,100175.60
2022-09-07T13:54:03.636Z,100173.80
2022-09-07T13:57:09.604Z,100170.60
2022-09-07T14:04:06.897Z,100172.20
2022-09-07T14:07:54.720Z,100172.80
2022-09-07T14:10:27.698Z,100175.20
2022-09-07T14:13:11.552Z,100177.60
2022-09-07T14:15:44.260Z,100176.80
2022-09-07T14:18:18.002Z,100172.80
2022-09-07T14:20:50.753Z,100168.80
2022-09-07T14:23:29.422Z,100168.20
2022-09-07T14:26:17.245Z,100157.20
2022-09-07T14:28:50.067Z,100161.20
2022-09-07T14:31:23.572Z,100162.80
2022-09-07T14:33:57.576Z,100164.80
2022-09-07T14:36:48.486Z,100161.60
2022-09-07T14:39:21.818Z,100158.40
2022-09-07T14:41:51.709Z,100156.20
2022-09-07T14:44:34.829Z,100156.00
2022-09-07T14:47:21.215Z,100152.80
2022-09-07T14:49:52.741Z,100154.60
2022-09-07T14:52:32.535Z,100156.40
2022-09-07T14:55:05.840Z,100154.20
2022-09-07T14:57:35.338Z,100150.80
2022-09-07T15:00:30.771Z,100146.00
2022-09-07T15:03:28.835Z,100146.60
2022-09-07T15:06:01.129Z,100142.00
2022-09-07T15:08:46.092Z,100143.40
2022-09-07T15:11:38.988Z,100141.80
2022-09-07T15:14:19.998Z,100136.60
2022-09-07T15:19:50.211Z,100135.80
2022-09-07T15:22:21.412Z,100140.80
2022-09-07T15:24:49.864Z,100137.60
2022-09-07T15:27:28.648Z,100132.80
2022-09-07T15:29:57.792Z,100129.80
2022-09-07T15:32:26.955Z,100131.60
2022-09-07T15:34:55.999Z,100130.20
2022-09-07T15:40:20.872Z,100127.20
2022-09-07T15:43:19.492Z,100128.00
2022-09-07T15:45:39.830Z,100124.60
2022-09-07T15:48:14.239Z,100125.00
2022-09-07T15:50:43.474Z,100125.40
2022-09-07T15:56:03.458Z,100123.40
2022-09-07T15:58:32.800Z,100125.60
2022-09-07T16:03:54.352Z,100135.80
2022-09-07T16:06:26.071Z,100136.20
2022-09-07T16:08:56.323Z,100137.40
2022-09-07T16:11:27.714Z,100135.40
2022-09-07T16:14:01.856Z,100133.40
2022-09-07T16:19:22.115Z,100130.60
2022-09-07T16:21:51.375Z,100129.20
2022-09-07T16:24:20.419Z,100130.40
2022-09-07T16:26:49.708Z,100128.60
2022-09-07T16:29:19.804Z,100118.60
2022-09-07T16:34:39.071Z,100107.40
2022-09-07T16:37:08.684Z,100106.80
2022-09-07T16:39:37.764Z,100102.20
2022-09-07T16:42:08.873Z,100097.60
2022-09-07T16:44:38.117Z,100104.60
2022-09-07T16:47:07.980Z,100103.60
2022-09-07T16:49:37.333Z,100102.60
2022-09-07T16:52:10.605Z,100099.60
2022-09-07T16:54:40.036Z,100095.80
2022-09-07T16:57:09.107Z,100092.00
2022-09-07T16:59:38.107Z,100085.20
2022-09-07T17:02:09.420Z,100086.80
2022-09-07T17:04:38.502Z,100087.00
2022-09-07T17:07:07.564Z,100089.00
2022-09-07T17:09:36.701Z,100095.00
2022-09-07T17:12:07.646Z,100091.40
2022-09-07T17:14:36.708Z,100084.60
2022-09-07T17:17:05.846Z,100086.60
2022-09-07T17:19:35.502Z,100090.40
2022-09-07T17:22:05.035Z,100096.00
2022-09-07T17:24:34.269Z,100091.60
2022-09-07T17:27:04.378Z,100094.80
2022-09-07T17:29:37.109Z,100096.20
2022-09-07T17:32:24.512Z,100094.20
2022-09-07T17:34:55.193Z,100095.20
2022-09-07T17:37:24.315Z,100092.40
2022-09-07T17:39:53.466Z,100097.80
2022-09-07T17:42:25.112Z,100096.00
2022-09-07T17:44:54.406Z,100093.40
2022-09-07T17:47:23.589Z,100096.40
2022-09-07T17:49:52.667Z,100103.20
2022-09-07T17:52:22.507Z,100102.00
2022-09-07T17:54:54.818Z,100102.80
2022-09-07T17:57:24.256Z,100095.40
2022-09-07T18:02:42.552Z,100097.60
2022-09-07T18:05:11.863Z,100099.80
2022-09-07T18:07:41.340Z,100107.20
2022-09-07T18:10:11.158Z,100113.80
2022-09-07T18:12:40.336Z,100117.60
2022-09-07T18:15:11.251Z,100119.00
2022-09-07T18:17:40.624Z,100116.80
2022-09-07T18:20:10.621Z,100115.40
2022-09-07T18:22:39.715Z,100117.60
2022-09-07T18:25:10.443Z,100120.80
2022-09-07T18:27:40.732Z,100111.40
2022-09-07T18:30:13.200Z,100116.40
2022-09-07T18:32:42.288Z,100112.60
2022-09-07T18:35:11.723Z,100113.00
2022-09-07T18:37:40.866Z,100110.00
2022-09-07T18:40:12.129Z,100108.60
2022-09-07T18:42:42.321Z,100108.00
2022-09-07T18:45:29.505Z,100115.20
2022-09-07T18:47:59.017Z,100115.40
2022-09-07T18:50:28.114Z,100110.20
2022-09-07T18:53:14.097Z,100106.00
2022-09-07T18:55:45.549Z,100109.40
2022-09-07T18:58:15.402Z,100108.80
2022-09-07T19:00:46.964Z,100113.20
2022-09-07T19:03:16.816Z,100114.60
2022-09-07T19:05:50.052Z,100114.80
2022-09-07T19:08:20.118Z,100110.20
2022-09-07T19:10:49.770Z,100113.40
2022-09-07T19:13:19.075Z,100114.00
2022-09-07T19:15:48.316Z,100103.80
2022-09-07T19:18:17.441Z,100103.80
2022-09-07T19:20:46.610Z,100102.60
2022-09-07T19:23:15.669Z,100098.80
2022-09-07T19:25:44.809Z,100096.00
2022-09-07T19:28:13.975Z,100095.20
2022-09-07T19:30:43.304Z,100090.00
2022-09-07T19:33:12.343Z,100091.40
2022-09-07T19:35:41.431Z,100086.40
2022-09-07T19:38:11.991Z,100084.60
2022-09-07T19:40:41.349Z,100082.60
2022-09-07T19:43:10.573Z,100078.20
2022-09-07T19:45:40.120Z,100066.80
2022-09-07T19:48:09.236Z,100062.40
2022-09-07T19:50:38.389Z,100063.80
2022-09-07T19:53:07.690Z,100059.40
2022-09-07T19:55:36.846Z,100063.00
2022-09-07T19:58:07.740Z,100060.60
2022-09-07T20:00:38.916Z,100062.20
2022-09-07T20:03:09.182Z,100053.20
2022-09-07T20:05:41.925Z,100052.40
2022-09-07T20:08:11.856Z,100049.40
2022-09-07T20:10:41.120Z,100047.60
2022-09-07T20:13:10.453Z,100048.40
2022-09-07T20:15:41.948Z,100047.20
2022-09-07T20:18:11.179Z,100051.20
2022-09-07T20:20:40.335Z,100053.00
2022-09-07T20:23:09.939Z,100047.60
2022-09-07T20:25:39.197Z,100038.80
2022-09-07T20:28:08.764Z,100044.20
2022-09-07T20:30:43.922Z,100046.60
2022-09-07T20:33:13.152Z,100048.40
2022-09-07T20:35:43.091Z,100051.60
2022-09-07T20:38:12.147Z,100047.20
2022-09-07T20:40:52.536Z,100046.00
2022-09-07T20:43:22.738Z,100045.60
2022-09-07T20:45:57.130Z,100044.40
2022-09-07T20:48:27.287Z,100038.60
2022-09-07T20:50:57.959Z,100041.00
2022-09-07T20:53:27.836Z,100045.20
2022-09-07T20:56:02.430Z,100040.20
2022-09-07T20:58:31.877Z,100038.20
2022-09-07T21:01:02.085Z,100037.00
2022-09-07T21:03:31.555Z,100040.60
2022-09-07T21:06:05.303Z,100035.40
2022-09-07T21:08:38.499Z,100035.60
2022-09-07T21:11:10.709Z,100035.80
2022-09-07T21:13:40.250Z,100038.00
2022-09-07T21:16:12.621Z,100040.60
2022-09-07T21:18:43.398Z,100040.80
2022-09-07T21:21:20.783Z,100030.60
2022-09-07T21:23:56.010Z,100034.40
2022-09-07T21:26:27.049Z,100039.40
2022-09-07T21:28:58.035Z,100039.40
2022-09-07T21:31:29.162Z,100035.20
2022-09-07T21:34:00.793Z,100040.20
2022-09-07T21:36:30.880Z,100042.40
2022-09-07T21:38:59.996Z,100044.20
2022-09-07T21:41:29.099Z,100040.20
2022-09-07T21:44:00.215Z,100042.60
2022-09-07T21:46:31.848Z,100043.40
2022-09-07T21:49:01.580Z,100046.00
2022-09-07T21:51:31.568Z,100048.40
2022-09-07T21:54:01.799Z,100059.40
2022-09-07T21:56:32.217Z,100061.00
2022-09-07T21:59:04.078Z,100055.80
2022-09-07T22:01:35.903Z,100051.60
2022-09-07T22:04:11.576Z,100051.40
2022-09-07T22:06:55.588Z,100045.40
2022-09-07T22:09:24.794Z,100047.60
2022-09-07T22:11:53.941Z,100060.20
2022-09-07T22:14:23.001Z,100054.20
2022-09-07T22:16:52.182Z,100048.00
2022-09-07T22:19:21.739Z,100044.00
2022-09-07T22:21:58.053Z,100047.20
2022-09-07T22:24:27.541Z,100049.80
2022-09-07T22:26:56.808Z,100040.20
2022-09-07T22:29:27.482Z,100031.20
2022-09-07T22:31:56.648Z,100030.60
2022-09-07T22:34:26.019Z,100036.20
2022-09-07T22:36:55.067Z,100030.60
2022-09-07T22:39:24.371Z,100025.60
2022-09-07T22:41:53.402Z,100021.60
2022-09-07T22:44:24.027Z,100016.40
2022-09-07T22:46:53.103Z,100012.40
2022-09-07T22:49:22.164Z,100004.80
2022-09-07T22:51:51.185Z,100004.00
2022-09-07T22:54:20.586Z,100001.00
2022-09-07T22:56:49.880Z,99996.40
2022-09-07T22:59:18.881Z,99996.60
2022-09-07T23:01:48.798Z,99995.80
2022-09-07T23:04:17.974Z,99992.20
2022-09-07T23:06:47.145Z,99987.20
2022-09-07T23:09:18.111Z,99984.40
2022-09-07T23:11:49.986Z,99981.60
2022-09-07T23:14:23.379Z,99979.40
2022-09-07T23:16:56.628Z,99978.00
2022-09-07T23:19:32.550Z,99980.20
2022-09-07T23:22:07.278Z,99977.60
2022-09-07T23:24:41.047Z,99971.80
2022-09-07T23:27:17.001Z,99971.80
2022-09-07T23:29:55.315Z,99966.60
2022-09-07T23:32:24.437Z,99967.80
2022-09-07T23:34:53.518Z,99972.60
2022-09-07T23:37:22.705Z,99969.20
2022-09-07T23:39:51.920Z,99967.80
2022-09-07T23:42:20.962Z,99963.20
2022-09-07T23:44:50.061Z,99952.80
2022-09-07T23:47:19.136Z,99952.80
2022-09-07T23:49:48.121Z,99951.00
2022-09-07T23:52:17.541Z,99944.20
2022-09-07T23:54:46.560Z,99940.40
2022-09-07T23:57:15.653Z,99937.80
2022-09-07T23:59:44.760Z,99946.60
